sensor_id;sensor_type;location;lat;lon;timestamp;pressure;altitude;pressure_sealevel;temperature;humidity
73205;BME280;61413;-27.702;153.216;2024-03-22T00:01:27;102161.69;;;24.72;33.24
73205;BME280;61413;-27.702;153.216;2024-03-22T00:03:55;102163.34;;;24.54;33.41
73205;BME280;61413;-27.702;153.216;2024-03-22T00:06:23;102151.19;;;24.72;33.02
73205;BME280;61413;-27.702;153.216;2024-03-22T00:08:51;102142.41;;;24.50;33.01
73205;BME280;61413;-27.702;153.216;2024-03-22T00:11:19;102139.43;;;24.45;33.05
73205;BME280;61413;-27.702;153.216;2024-03-22T00:13:47;102144.90;;;24.96;32.94
73205;BME280;61413;-27.702;153.216;2024-03-22T00:16:15;102133.61;;;25.17;32.65
73205;BME280;61413;-27.702;153.216;2024-03-22T00:18:44;102142.36;;;24.82;32.56
73205;BME280;61413;-27.702;153.216;2024-03-22T00:21:12;102148.49;;;25.05;32.49
73205;BME280;61413;-27.702;153.216;2024-03-22T00:23:40;102142.38;;;25.26;32.10
73205;BME280;61413;-27.702;153.216;2024-03-22T00:26:08;102142.77;;;25.36;32.31
73205;BME280;61413;-27.702;153.216;2024-03-22T00:28:37;102142.43;;;24.97;32.40
73205;BME280;61413;-27.702;153.216;2024-03-22T00:31:05;102150.83;;;25.29;32.30
73205;BME280;61413;-27.702;153.216;2024-03-22T00:33:33;102152.36;;;25.13;32.29
73205;BME280;61413;-27.702;153.216;2024-03-22T00:36:01;102151.46;;;24.71;32.05
73205;BME280;61413;-27.702;153.216;2024-03-22T00:38:29;102155.84;;;25.10;31.96
73205;BME280;61413;-27.702;153.216;2024-03-22T00:41:39;102162.91;;;25.41;32.17
73205;BME280;61413;-27.702;153.216;2024-03-22T00:44:08;102160.30;;;25.16;32.13
73205;BME280;61413;-27.702;153.216;2024-03-22T00:46:36;102165.44;;;25.20;31.74
73205;BME280;61413;-27.702;153.216;2024-03-22T00:49:05;102161.01;;;25.38;31.63
73205;BME280;61413;-27.702;153.216;2024-03-22T00:51:30;102155.02;;;25.58;31.27
73205;BME280;61413;-27.702;153.216;2024-03-22T00:53:58;102154.42;;;25.86;31.20
73205;BME280;61413;-27.702;153.216;2024-03-22T00:56:26;102146.61;;;26.11;30.99
73205;BME280;61413;-27.702;153.216;2024-03-22T00:58:54;102144.11;;;25.94;30.80
73205;BME280;61413;-27.702;153.216;2024-03-22T01:01:22;102152.30;;;26.05;30.91
73205;BME280;61413;-27.702;153.216;2024-03-22T01:03:50;102147.15;;;25.79;31.05
73205;BME280;61413;-27.702;153.216;2024-03-22T01:06:18;102160.93;;;25.74;30.81
73205;BME280;61413;-27.702;153.216;2024-03-22T01:08:46;102148.35;;;25.40;30.65
73205;BME280;61413;-27.702;153.216;2024-03-22T01:11:14;102144.70;;;25.31;30.78
73205;BME280;61413;-27.702;153.216;2024-03-22T01:13:42;102139.63;;;25.13;31.27
73205;BME280;61413;-27.702;153.216;2024-03-22T01:16:10;102148.52;;;24.64;31.27
73205;BME280;61413;-27.702;153.216;2024-03-22T01:18:38;102150.21;;;25.08;31.38
73205;BME280;61413;-27.702;153.216;2024-03-22T01:21:06;102154.83;;;24.71;31.58
73205;BME280;61413;-27.702;153.216;2024-03-22T01:25:35;102152.21;;;24.70;32.06
73205;BME280;61413;-27.702;153.216;2024-03-22T01:28:03;102141.00;;;24.93;31.97
73205;BME280;61413;-27.702;153.216;2024-03-22T01:30:30;102138.23;;;24.97;31.68
73205;BME280;61413;-27.702;153.216;2024-03-22T01:32:58;102123.59;;;25.39;31.57
73205;BME280;61413;-27.702;153.216;2024-03-22T01:35:26;102121.39;;;25.53;31.40
73205;BME280;61413;-27.702;153.216;2024-03-22T01:37:55;102121.84;;;25.59;31.34
73205;BME280;61413;-27.702;153.216;2024-03-22T01:40:19;102120.22;;;25.43;31.24
73205;BME280;61413;-27.702;153.216;2024-03-22T01:42:47;102124.38;;;25.67;31.03
73205;BME280;61413;-27.702;153.216;2024-03-22T01:45:16;102122.85;;;25.54;30.12
73205;BME280;61413;-27.702;153.216;2024-03-22T01:47:44;102115.67;;;25.94;30.10
73205;BME280;61413;-27.702;153.216;2024-03-22T01:50:13;102103.36;;;26.43;29.76
73205;BME280;61413;-27.702;153.216;2024-03-22T01:52:42;102105.72;;;26.76;29.95
73205;BME280;61413;-27.702;153.216;2024-03-22T01:55:07;102111.24;;;26.59;29.85
73205;BME280;61413;-27.702;153.216;2024-03-22T01:57:31;102103.18;;;26.39;29.40
73205;BME280;61413;-27.702;153.216;2024-03-22T01:59:57;102090.48;;;26.33;29.30
73205;BME280;61413;-27.702;153.216;2024-03-22T02:02:22;102083.25;;;26.74;29.05
73205;BME280;61413;-27.702;153.216;2024-03-22T02:04:52;102081.65;;;26.57;28.84
73205;BME280;61413;-27.702;153.216;2024-03-22T02:07:16;102083.03;;;26.56;29.12
73205;BME280;61413;-27.702;153.216;2024-03-22T02:09:44;102076.68;;;26.45;29.35
73205;BME280;61413;-27.702;153.216;2024-03-22T02:12:13;102064.39;;;26.40;29.53
73205;BME280;61413;-27.702;153.216;2024-03-22T02:14:41;102065.57;;;26.18;29.44
73205;BME280;61413;-27.702;153.216;2024-03-22T02:17:09;102057.93;;;26.71;29.09
73205;BME280;61413;-27.702;153.216;2024-03-22T02:19:37;102049.65;;;26.80;29.24
73205;BME280;61413;-27.702;153.216;2024-03-22T02:22:05;102041.44;;;26.74;28.60
73205;BME280;61413;-27.702;153.216;2024-03-22T02:24:33;102043.03;;;26.65;28.45
73205;BME280;61413;-27.702;153.216;2024-03-22T02:27:01;102040.08;;;26.74;27.81
73205;BME280;61413;-27.702;153.216;2024-03-22T02:29:30;102028.60;;;26.91;28.05
73205;BME280;61413;-27.702;153.216;2024-03-22T02:31:58;102038.30;;;26.99;28.02
73205;BME280;61413;-27.702;153.216;2024-03-22T02:34:25;102054.78;;;26.69;27.94
73205;BME280;61413;-27.702;153.216;2024-03-22T02:36:53;102033.74;;;26.91;28.17
73205;BME280;61413;-27.702;153.216;2024-03-22T02:39:21;102018.64;;;26.73;28.15
73205;BME280;61413;-27.702;153.216;2024-03-22T02:41:49;102011.17;;;26.11;28.32
73205;BME280;61413;-27.702;153.216;2024-03-22T02:45:04;102013.81;;;26.53;28.41
73205;BME280;61413;-27.702;153.216;2024-03-22T02:47:32;102005.11;;;26.66;28.77
73205;BME280;61413;-27.702;153.216;2024-03-22T02:50:01;102004.00;;;26.70;28.93
73205;BME280;61413;-27.702;153.216;2024-03-22T02:52:28;102002.18;;;26.72;28.86
73205;BME280;61413;-27.702;153.216;2024-03-22T02:54:57;102005.18;;;26.48;28.36
73205;BME280;61413;-27.702;153.216;2024-03-22T02:57:22;102005.54;;;26.42;28.53
73205;BME280;61413;-27.702;153.216;2024-03-22T02:59:50;102009.45;;;26.91;28.25
73205;BME280;61413;-27.702;153.216;2024-03-22T03:02:17;101996.27;;;27.13;28.41
73205;BME280;61413;-27.702;153.216;2024-03-22T03:04:46;101993.93;;;26.58;28.41
73205;BME280;61413;-27.702;153.216;2024-03-22T03:07:14;101989.85;;;26.45;28.23
73205;BME280;61413;-27.702;153.216;2024-03-22T03:09:42;101980.66;;;26.59;28.11
73205;BME280;61413;-27.702;153.216;2024-03-22T03:12:10;101983.99;;;27.02;28.39
73205;BME280;61413;-27.702;153.216;2024-03-22T03:14:38;101987.15;;;26.86;28.15
73205;BME280;61413;-27.702;153.216;2024-03-22T03:18:52;101992.95;;;26.51;28.74
73205;BME280;61413;-27.702;153.216;2024-03-22T03:21:20;101989.11;;;26.57;28.41
73205;BME280;61413;-27.702;153.216;2024-03-22T03:23:48;101985.32;;;26.28;28.73
73205;BME280;61413;-27.702;153.216;2024-03-22T03:26:16;101974.30;;;26.78;28.77
73205;BME280;61413;-27.702;153.216;2024-03-22T03:28:45;101970.37;;;26.47;29.20
73205;BME280;61413;-27.702;153.216;2024-03-22T03:31:12;101970.35;;;26.61;29.18
73205;BME280;61413;-27.702;153.216;2024-03-22T03:33:40;101967.19;;;26.78;29.21
73205;BME280;61413;-27.702;153.216;2024-03-22T03:36:09;101962.12;;;27.02;29.14
73205;BME280;61413;-27.702;153.216;2024-03-22T03:38:37;101961.87;;;27.53;29.00
73205;BME280;61413;-27.702;153.216;2024-03-22T03:41:05;101956.32;;;27.87;28.55
73205;BME280;61413;-27.702;153.216;2024-03-22T03:43:33;101968.65;;;27.41;28.73
73205;BME280;61413;-27.702;153.216;2024-03-22T03:48:34;101960.81;;;27.33;28.85
73205;BME280;61413;-27.702;153.216;2024-03-22T03:51:02;101971.04;;;27.07;28.89
73205;BME280;61413;-27.702;153.216;2024-03-22T03:53:30;101969.26;;;26.34;29.22
73205;BME280;61413;-27.702;153.216;2024-03-22T03:55:58;101976.58;;;26.51;29.54
73205;BME280;61413;-27.702;153.216;2024-03-22T03:58:26;101975.79;;;26.18;29.84
73205;BME280;61413;-27.702;153.216;2024-03-22T04:00:54;101973.32;;;26.00;29.60
73205;BME280;61413;-27.702;153.216;2024-03-22T04:03:23;101973.30;;;26.37;29.55
73205;BME280;61413;-27.702;153.216;2024-03-22T04:05:56;101973.03;;;26.34;29.68
73205;BME280;61413;-27.702;153.216;2024-03-22T04:10:19;101973.67;;;26.00;29.31
73205;BME280;61413;-27.702;153.216;2024-03-22T04:12:47;101973.66;;;25.91;29.45
73205;BME280;61413;-27.702;153.216;2024-03-22T04:15:15;101966.99;;;25.84;29.73
73205;BME280;61413;-27.702;153.216;2024-03-22T04:17:43;101963.13;;;25.62;29.45
73205;BME280;61413;-27.702;153.216;2024-03-22T04:20:12;101962.22;;;25.53;29.72
73205;BME280;61413;-27.702;153.216;2024-03-22T04:22:36;101968.82;;;25.49;29.64
73205;BME280;61413;-27.702;153.216;2024-03-22T04:25:04;101962.31;;;25.34;29.61
73205;BME280;61413;-27.702;153.216;2024-03-22T04:27:32;101958.24;;;25.10;29.78
73205;BME280;61413;-27.702;153.216;2024-03-22T04:32:57;101974.58;;;25.13;29.95
73205;BME280;61413;-27.702;153.216;2024-03-22T04:35:25;101975.12;;;25.21;29.87
73205;BME280;61413;-27.702;153.216;2024-03-22T04:37:53;101963.80;;;24.82;29.43
73205;BME280;61413;-27.702;153.216;2024-03-22T04:40:20;101963.83;;;24.90;29.33
73205;BME280;61413;-27.702;153.216;2024-03-22T04:42:48;101964.88;;;25.12;29.56
73205;BME280;61413;-27.702;153.216;2024-03-22T04:45:16;101960.98;;;25.05;29.61
73205;BME280;61413;-27.702;153.216;2024-03-22T04:47:44;101965.19;;;25.03;29.73
73205;BME280;61413;-27.702;153.216;2024-03-22T04:50:12;101966.73;;;24.93;29.94
73205;BME280;61413;-27.702;153.216;2024-03-22T04:52:40;101966.10;;;25.32;29.48
73205;BME280;61413;-27.702;153.216;2024-03-22T04:55:17;101971.00;;;25.16;29.44
73205;BME280;61413;-27.702;153.216;2024-03-22T04:57:32;101960.69;;;25.14;29.39
73205;BME280;61413;-27.702;153.216;2024-03-22T05:00:00;101962.21;;;25.42;29.21
73205;BME280;61413;-27.702;153.216;2024-03-22T05:02:28;101957.76;;;25.58;29.00
73205;BME280;61413;-27.702;153.216;2024-03-22T05:04:57;101963.18;;;25.32;28.83
73205;BME280;61413;-27.702;153.216;2024-03-22T05:07:24;101958.50;;;25.79;28.96
73205;BME280;61413;-27.702;153.216;2024-03-22T05:09:52;101959.64;;;25.11;29.12
73205;BME280;61413;-27.702;153.216;2024-03-22T05:12:21;101955.40;;;25.10;29.28
73205;BME280;61413;-27.702;153.216;2024-03-22T05:14:49;101956.99;;;25.23;29.45
73205;BME280;61413;-27.702;153.216;2024-03-22T05:17:17;101964.33;;;25.20;29.58
73205;BME280;61413;-27.702;153.216;2024-03-22T05:19:45;101957.66;;;24.79;29.48
73205;BME280;61413;-27.702;153.216;2024-03-22T05:22:12;101967.72;;;24.65;29.80
73205;BME280;61413;-27.702;153.216;2024-03-22T05:24:41;101956.34;;;25.15;29.73
73205;BME280;61413;-27.702;153.216;2024-03-22T05:27:08;101956.42;;;25.00;29.58
73205;BME280;61413;-27.702;153.216;2024-03-22T05:29:36;101945.33;;;25.14;29.42
73205;BME280;61413;-27.702;153.216;2024-03-22T05:32:04;101944.59;;;25.21;29.42
73205;BME280;61413;-27.702;153.216;2024-03-22T05:34:32;101941.72;;;24.98;29.69
73205;BME280;61413;-27.702;153.216;2024-03-22T05:37:00;101939.02;;;25.37;29.71
73205;BME280;61413;-27.702;153.216;2024-03-22T05:39:28;101946.55;;;25.16;29.51
73205;BME280;61413;-27.702;153.216;2024-03-22T05:43:16;101932.60;;;26.03;29.56
73205;BME280;61413;-27.702;153.216;2024-03-22T05:45:44;101942.88;;;25.73;29.66
73205;BME280;61413;-27.702;153.216;2024-03-22T05:48:12;101951.36;;;25.68;29.59
73205;BME280;61413;-27.702;153.216;2024-03-22T05:50:40;101945.92;;;25.40;29.45
73205;BME280;61413;-27.702;153.216;2024-03-22T05:53:08;101945.23;;;25.36;29.36
73205;BME280;61413;-27.702;153.216;2024-03-22T05:55:37;101946.56;;;25.49;29.35
73205;BME280;61413;-27.702;153.216;2024-03-22T05:58:01;101954.04;;;25.47;29.10
73205;BME280;61413;-27.702;153.216;2024-03-22T06:00:30;101948.45;;;25.25;28.91
73205;BME280;61413;-27.702;153.216;2024-03-22T06:02:58;101945.55;;;25.06;28.94
73205;BME280;61413;-27.702;153.216;2024-03-22T06:05:25;101946.94;;;25.06;29.08
73205;BME280;61413;-27.702;153.216;2024-03-22T06:07:53;101947.24;;;25.25;29.35
73205;BME280;61413;-27.702;153.216;2024-03-22T06:10:22;101944.06;;;25.22;29.43
73205;BME280;61413;-27.702;153.216;2024-03-22T06:12:49;101944.66;;;25.35;29.45
73205;BME280;61413;-27.702;153.216;2024-03-22T06:15:18;101943.63;;;25.63;29.65
73205;BME280;61413;-27.702;153.216;2024-03-22T06:17:46;101949.87;;;25.89;29.56
73205;BME280;61413;-27.702;153.216;2024-03-22T06:20:23;101946.19;;;26.13;29.47
73205;BME280;61413;-27.702;153.216;2024-03-22T06:22:42;101943.46;;;25.77;29.37
73205;BME280;61413;-27.702;153.216;2024-03-22T06:25:10;101954.12;;;25.34;29.71
73205;BME280;61413;-27.702;153.216;2024-03-22T06:27:38;101950.42;;;24.64;30.32
73205;BME280;61413;-27.702;153.216;2024-03-22T06:30:07;101963.71;;;24.61;30.93
73205;BME280;61413;-27.702;153.216;2024-03-22T06:32:31;101973.54;;;24.30;31.24
73205;BME280;61413;-27.702;153.216;2024-03-22T06:34:59;101969.57;;;24.06;31.29
73205;BME280;61413;-27.702;153.216;2024-03-22T06:37:27;101974.60;;;24.13;31.50
73205;BME280;61413;-27.702;153.216;2024-03-22T06:41:30;101974.70;;;23.93;31.78
73205;BME280;61413;-27.702;153.216;2024-03-22T06:43:58;101976.22;;;23.47;31.80
73205;BME280;61413;-27.702;153.216;2024-03-22T06:51:17;101967.98;;;23.46;32.19
73205;BME280;61413;-27.702;153.216;2024-03-22T06:53:45;101970.75;;;23.77;31.99
73205;BME280;61413;-27.702;153.216;2024-03-22T06:56:13;101979.41;;;23.62;31.70
73205;BME280;61413;-27.702;153.216;2024-03-22T06:58:41;101974.29;;;23.61;31.70
73205;BME280;61413;-27.702;153.216;2024-03-22T07:01:10;101985.17;;;23.28;31.77
73205;BME280;61413;-27.702;153.216;2024-03-22T07:03:37;101993.47;;;23.63;31.73
73205;BME280;61413;-27.702;153.216;2024-03-22T07:06:06;101991.32;;;23.46;31.82
73205;BME280;61413;-27.702;153.216;2024-03-22T07:08:34;101991.96;;;23.57;31.85
73205;BME280;61413;-27.702;153.216;2024-03-22T07:11:56;101993.31;;;23.69;31.93
73205;BME280;61413;-27.702;153.216;2024-03-22T07:14:24;102000.89;;;23.17;32.04
73205;BME280;61413;-27.702;153.216;2024-03-22T07:19:21;101998.12;;;23.27;32.26
73205;BME280;61413;-27.702;153.216;2024-03-22T07:21:50;101999.68;;;23.12;32.25
73205;BME280;61413;-27.702;153.216;2024-03-22T07:24:18;101995.70;;;23.68;32.13
73205;BME280;61413;-27.702;153.216;2024-03-22T07:26:46;101991.58;;;23.50;32.28
73205;BME280;61413;-27.702;153.216;2024-03-22T07:29:14;101993.23;;;23.17;32.41
73205;BME280;61413;-27.702;153.216;2024-03-22T07:33:54;101997.85;;;23.27;32.88
73205;BME280;61413;-27.702;153.216;2024-03-22T07:36:19;102000.11;;;23.12;32.89
73205;BME280;61413;-27.702;153.216;2024-03-22T07:38:47;102003.71;;;22.89;32.90
73205;BME280;61413;-27.702;153.216;2024-03-22T07:41:15;102009.23;;;23.01;32.99
73205;BME280;61413;-27.702;153.216;2024-03-22T07:43:43;102013.96;;;23.06;33.01
73205;BME280;61413;-27.702;153.216;2024-03-22T07:46:11;102012.69;;;22.73;33.17
73205;BME280;61413;-27.702;153.216;2024-03-22T07:48:39;102017.09;;;22.88;33.32
73205;BME280;61413;-27.702;153.216;2024-03-22T07:51:07;102018.23;;;22.57;33.34
73205;BME280;61413;-27.702;153.216;2024-03-22T07:56:30;102029.55;;;22.65;33.51
73205;BME280;61413;-27.702;153.216;2024-03-22T07:58:58;102028.97;;;22.61;33.57
73205;BME280;61413;-27.702;153.216;2024-03-22T08:01:26;102024.38;;;22.58;33.53
73205;BME280;61413;-27.702;153.216;2024-03-22T08:03:54;102026.02;;;22.61;33.55
73205;BME280;61413;-27.702;153.216;2024-03-22T08:06:23;102030.30;;;22.60;33.44
73205;BME280;61413;-27.702;153.216;2024-03-22T08:08:50;102036.60;;;22.49;33.51
73205;BME280;61413;-27.702;153.216;2024-03-22T08:14:02;102034.01;;;22.49;33.74
73205;BME280;61413;-27.702;153.216;2024-03-22T08:16:30;102039.47;;;22.42;33.64
73205;BME280;61413;-27.702;153.216;2024-03-22T08:18:58;102038.68;;;22.30;33.72
73205;BME280;61413;-27.702;153.216;2024-03-22T08:21:26;102041.57;;;22.28;33.66
73205;BME280;61413;-27.702;153.216;2024-03-22T08:23:54;102042.32;;;22.53;33.79
73205;BME280;61413;-27.702;153.216;2024-03-22T08:26:22;102041.24;;;22.26;33.80
73205;BME280;61413;-27.702;153.216;2024-03-22T08:28:50;102037.52;;;22.42;33.86
73205;BME280;61413;-27.702;153.216;2024-03-22T08:31:18;102035.90;;;22.35;33.83
73205;BME280;61413;-27.702;153.216;2024-03-22T08:33:46;102037.69;;;22.11;33.90
73205;BME280;61413;-27.702;153.216;2024-03-22T08:36:14;102038.30;;;22.21;33.93
73205;BME280;61413;-27.702;153.216;2024-03-22T08:38:41;102034.85;;;22.48;33.86
73205;BME280;61413;-27.702;153.216;2024-03-22T08:41:09;102039.30;;;22.34;33.99
73205;BME280;61413;-27.702;153.216;2024-03-22T08:43:37;102039.27;;;22.31;34.09
73205;BME280;61413;-27.702;153.216;2024-03-22T08:46:05;102046.55;;;21.92;34.09
73205;BME280;61413;-27.702;153.216;2024-03-22T08:48:33;102050.93;;;22.29;34.03
73205;BME280;61413;-27.702;153.216;2024-03-22T08:51:01;102054.09;;;22.33;34.03
73205;BME280;61413;-27.702;153.216;2024-03-22T08:53:28;102057.47;;;22.25;34.12
73205;BME280;61413;-27.702;153.216;2024-03-22T08:55:56;102065.87;;;22.17;34.15
73205;BME280;61413;-27.702;153.216;2024-03-22T08:58:24;102071.28;;;22.16;34.22
73205;BME280;61413;-27.702;153.216;2024-03-22T09:00:52;102071.94;;;22.05;34.29
73205;BME280;61413;-27.702;153.216;2024-03-22T09:03:20;102075.18;;;22.03;34.26
73205;BME280;61413;-27.702;153.216;2024-03-22T09:05:45;102076.39;;;22.34;34.28
73205;BME280;61413;-27.702;153.216;2024-03-22T09:08:13;102075.75;;;22.25;34.40
73205;BME280;61413;-27.702;153.216;2024-03-22T09:10:41;102084.43;;;21.99;34.50
73205;BME280;61413;-27.702;153.216;2024-03-22T09:13:08;102087.19;;;22.11;34.54
73205;BME280;61413;-27.702;153.216;2024-03-22T09:15:36;102089.33;;;22.15;34.60
73205;BME280;61413;-27.702;153.216;2024-03-22T09:18:04;102092.83;;;21.90;34.65
73205;BME280;61413;-27.702;153.216;2024-03-22T09:22:38;102095.83;;;22.11;34.89
73205;BME280;61413;-27.702;153.216;2024-03-22T09:25:07;102102.85;;;22.00;34.85
73205;BME280;61413;-27.702;153.216;2024-03-22T09:27:35;102113.13;;;22.30;34.79
73205;BME280;61413;-27.702;153.216;2024-03-22T09:30:03;102111.02;;;22.12;34.84
73205;BME280;61413;-27.702;153.216;2024-03-22T09:32:31;102108.86;;;22.21;34.83
73205;BME280;61413;-27.702;153.216;2024-03-22T09:34:58;102109.38;;;22.31;34.90
73205;BME280;61413;-27.702;153.216;2024-03-22T09:37:26;102109.65;;;22.17;34.93
73205;BME280;61413;-27.702;153.216;2024-03-22T09:39:54;102111.25;;;21.68;35.03
73205;BME280;61413;-27.702;153.216;2024-03-22T09:42:24;102108.98;;;21.84;34.99
73205;BME280;61413;-27.702;153.216;2024-03-22T09:44:50;102112.97;;;21.97;35.04
73205;BME280;61413;-27.702;153.216;2024-03-22T09:47:15;102112.40;;;21.59;35.06
73205;BME280;61413;-27.702;153.216;2024-03-22T09:49:39;102109.39;;;21.86;35.10
73205;BME280;61413;-27.702;153.216;2024-03-22T09:52:08;102107.77;;;21.72;35.09
73205;BME280;61413;-27.702;153.216;2024-03-22T09:54:33;102111.64;;;21.95;35.07
73205;BME280;61413;-27.702;153.216;2024-03-22T09:57:01;102112.58;;;22.34;34.88
73205;BME280;61413;-27.702;153.216;2024-03-22T09:59:25;102112.37;;;22.48;34.69
73205;BME280;61413;-27.702;153.216;2024-03-22T10:01:53;102113.13;;;22.46;34.56
73205;BME280;61413;-27.702;153.216;2024-03-22T10:04:21;102125.06;;;22.56;34.46
73205;BME280;61413;-27.702;153.216;2024-03-22T10:06:50;102134.34;;;22.66;34.37
73205;BME280;61413;-27.702;153.216;2024-03-22T10:11:39;102134.38;;;22.75;34.39
73205;BME280;61413;-27.702;153.216;2024-03-22T10:14:07;102137.58;;;22.84;34.33
73205;BME280;61413;-27.702;153.216;2024-03-22T10:16:36;102143.83;;;22.79;34.17
73205;BME280;61413;-27.702;153.216;2024-03-22T10:19:00;102147.38;;;22.88;34.17
73205;BME280;61413;-27.702;153.216;2024-03-22T10:21:29;102146.65;;;22.80;34.13
73205;BME280;61413;-27.702;153.216;2024-03-22T10:23:57;102142.79;;;22.93;34.14
73205;BME280;61413;-27.702;153.216;2024-03-22T10:26:25;102142.06;;;22.79;34.20
73205;BME280;61413;-27.702;153.216;2024-03-22T10:28:52;102145.36;;;22.97;34.14
73205;BME280;61413;-27.702;153.216;2024-03-22T10:31:21;102149.84;;;22.83;34.13
73205;BME280;61413;-27.702;153.216;2024-03-22T10:33:49;102150.92;;;22.72;34.11
73205;BME280;61413;-27.702;153.216;2024-03-22T10:36:14;102151.71;;;23.04;34.06
73205;BME280;61413;-27.702;153.216;2024-03-22T10:38:41;102150.92;;;22.75;34.09
73205;BME280;61413;-27.702;153.216;2024-03-22T10:41:06;102150.82;;;22.80;34.09
73205;BME280;61413;-27.702;153.216;2024-03-22T10:43:34;102150.58;;;23.25;34.05
73205;BME280;61413;-27.702;153.216;2024-03-22T10:46:02;102147.32;;;23.00;34.06
73205;BME280;61413;-27.702;153.216;2024-03-22T10:48:26;102149.75;;;22.89;34.10
73205;BME280;61413;-27.702;153.216;2024-03-22T10:50:54;102151.81;;;22.85;34.13
73205;BME280;61413;-27.702;153.216;2024-03-22T10:53:21;102151.18;;;22.99;34.12
73205;BME280;61413;-27.702;153.216;2024-03-22T10:55:49;102150.67;;;22.70;34.15
73205;BME280;61413;-27.702;153.216;2024-03-22T10:58:17;102151.06;;;22.85;34.11
73205;BME280;61413;-27.702;153.216;2024-03-22T11:00:44;102150.83;;;22.95;34.11
73205;BME280;61413;-27.702;153.216;2024-03-22T11:03:09;102153.83;;;22.89;34.14
73205;BME280;61413;-27.702;153.216;2024-03-22T11:05:33;102152.26;;;22.64;34.09
73205;BME280;61413;-27.702;153.216;2024-03-22T11:08:02;102147.02;;;22.90;34.13
73205;BME280;61413;-27.702;153.216;2024-03-22T11:10:30;102144.91;;;22.76;34.17
73205;BME280;61413;-27.702;153.216;2024-03-22T11:12:53;102141.91;;;22.58;34.22
73205;BME280;61413;-27.702;153.216;2024-03-22T11:15:22;102144.61;;;22.75;34.15
73205;BME280;61413;-27.702;153.216;2024-03-22T11:17:50;102138.34;;;22.66;34.09
73205;BME280;61413;-27.702;153.216;2024-03-22T11:20:18;102135.09;;;22.81;34.01
73205;BME280;61413;-27.702;153.216;2024-03-22T11:22:46;102132.17;;;22.61;34.07
73205;BME280;61413;-27.702;153.216;2024-03-22T11:25:14;102124.76;;;22.58;34.08
73205;BME280;61413;-27.702;153.216;2024-03-22T11:27:43;102116.18;;;22.71;34.05
73205;BME280;61413;-27.702;153.216;2024-03-22T11:30:08;102111.51;;;22.78;34.05
73205;BME280;61413;-27.702;153.216;2024-03-22T11:32:33;102111.58;;;22.68;34.06
73205;BME280;61413;-27.702;153.216;2024-03-22T11:34:58;102112.51;;;22.56;34.17
73205;BME280;61413;-27.702;153.216;2024-03-22T11:37:26;102111.91;;;22.53;34.28
73205;BME280;61413;-27.702;153.216;2024-03-22T11:39:55;102114.66;;;22.62;34.29
73205;BME280;61413;-27.702;153.216;2024-03-22T11:42:23;102114.67;;;22.54;34.22
73205;BME280;61413;-27.702;153.216;2024-03-22T11:44:52;102113.58;;;22.41;34.22
73205;BME280;61413;-27.702;153.216;2024-03-22T11:47:16;102111.24;;;22.48;34.18
73205;BME280;61413;-27.702;153.216;2024-03-22T11:49:44;102108.28;;;22.38;34.14
73205;BME280;61413;-27.702;153.216;2024-03-22T11:52:12;102109.44;;;22.41;34.12
73205;BME280;61413;-27.702;153.216;2024-03-22T11:56:51;102112.89;;;22.39;34.27
73205;BME280;61413;-27.702;153.216;2024-03-22T11:59:21;102116.87;;;22.53;34.23
73205;BME280;61413;-27.702;153.216;2024-03-22T12:01:45;102120.14;;;22.53;34.13
73205;BME280;61413;-27.702;153.216;2024-03-22T12:04:13;102123.06;;;22.40;34.03
73205;BME280;61413;-27.702;153.216;2024-03-22T12:06:42;102125.72;;;22.45;33.94
73205;BME280;61413;-27.702;153.216;2024-03-22T12:09:06;102124.64;;;22.63;33.92
73205;BME280;61413;-27.702;153.216;2024-03-22T12:11:34;102120.47;;;22.57;33.81
73205;BME280;61413;-27.702;153.216;2024-03-22T12:14:02;102119.03;;;22.43;33.85
73205;BME280;61413;-27.702;153.216;2024-03-22T12:16:31;102111.25;;;22.56;33.82
73205;BME280;61413;-27.702;153.216;2024-03-22T12:21:31;102112.34;;;22.69;33.96
73205;BME280;61413;-27.702;153.216;2024-03-22T12:23:59;102113.00;;;22.14;33.87
73205;BME280;61413;-27.702;153.216;2024-03-22T12:26:26;102114.84;;;22.39;33.83
73205;BME280;61413;-27.702;153.216;2024-03-22T12:28:54;102113.44;;;22.30;33.82
73205;BME280;61413;-27.702;153.216;2024-03-22T12:31:22;102116.68;;;22.75;33.80
73205;BME280;61413;-27.702;153.216;2024-03-22T12:33:50;102109.74;;;22.62;33.75
73205;BME280;61413;-27.702;153.216;2024-03-22T12:36:18;102101.42;;;22.81;33.75
73205;BME280;61413;-27.702;153.216;2024-03-22T12:38:46;102094.52;;;22.49;33.72
73205;BME280;61413;-27.702;153.216;2024-03-22T12:41:12;102094.06;;;22.54;33.61
73205;BME280;61413;-27.702;153.216;2024-03-22T12:46:09;102088.90;;;22.26;33.71
73205;BME280;61413;-27.702;153.216;2024-03-22T12:48:37;102087.82;;;22.57;33.69
73205;BME280;61413;-27.702;153.216;2024-03-22T12:51:06;102085.47;;;22.44;33.61
73205;BME280;61413;-27.702;153.216;2024-03-22T12:53:30;102087.39;;;22.65;33.44
73205;BME280;61413;-27.702;153.216;2024-03-22T12:55:58;102085.96;;;22.49;33.30
73205;BME280;61413;-27.702;153.216;2024-03-22T12:58:26;102081.15;;;22.49;33.22
73205;BME280;61413;-27.702;153.216;2024-03-22T13:00:53;102076.10;;;22.57;33.08
73205;BME280;61413;-27.702;153.216;2024-03-22T13:03:21;102072.08;;;22.61;33.04
73205;BME280;61413;-27.702;153.216;2024-03-22T13:05:49;102069.95;;;22.60;33.00